Time;durP1;ratioP1;P1;durP2;ratioP2;P2;SDS_P1;SDS_P2;PMS_P1;PMS_P2;Temp;Humidity;BMP_temperature;BMP_pressure;BME280_temperature;BME280_humidity;BME280_pressure;Samples;Min_cycle;Max_cycle;Signal;HPM_P1;HPM_P2
2021/07/29 00:00:56;;;;;;;7.97;4.60;;;15.30;12.30;;;;;;5092832;28;20208;-62
2021/07/29 00:03:23;;;;;;;7.03;5.03;;;15.30;69.70;;;;;;5092698;28;20250;-61
2021/07/29 00:05:50;;;;;;;7.27;4.67;;;15.30;99.90;;;;;;5092922;28;20204;-62
2021/07/29 00:08:19;;;;;;;9.60;5.20;;;15.30;99.90;;;;;;5092729;28;20207;-60
2021/07/29 00:10:46;;;;;;;7.87;4.47;;;15.20;1.00;;;;;;5091774;28;20593;-61
2021/07/29 00:13:13;;;;;;;8.37;5.33;;;15.10;1.00;;;;;;5092580;28;20340;-61
2021/07/29 00:15:39;;;;;;;7.10;4.93;;;15.10;45.60;;;;;;5092370;28;20261;-61
2021/07/29 00:20:50;;;;;;;6.33;4.70;;;15.10;99.90;;;;;;5092635;28;20666;-60
2021/07/29 00:23:18;;;;;;;6.40;4.63;;;15.10;99.90;;;;;;5092457;28;20216;-60
2021/07/29 00:25:45;;;;;;;8.20;4.87;;;15.10;99.90;;;;;;5092348;28;20212;-59
2021/07/29 00:28:11;;;;;;;5.97;4.77;;;15.00;99.90;;;;;;5092329;28;20204;-62
2021/07/29 00:30:38;;;;;;;7.60;5.33;;;15.10;99.90;;;;;;5092180;28;20773;-61
2021/07/29 00:33:04;;;;;;;8.77;5.30;;;15.00;99.90;;;;;;5092551;28;20257;-62
2021/07/29 00:35:31;;;;;;;8.10;5.50;;;15.00;99.90;;;;;;5092343;28;20213;-61
2021/07/29 00:38:02;;;;;;;8.43;5.57;;;15.00;99.90;;;;;;5092390;28;20211;-62
2021/07/29 00:40:30;;;;;;;6.67;4.93;;;14.90;99.90;;;;;;5092206;28;20200;-61
2021/07/29 00:42:58;;;;;;;7.80;5.13;;;14.90;99.90;;;;;;5091992;28;20230;-61
2021/07/29 00:45:25;;;;;;;7.97;5.67;;;14.90;99.90;;;;;;5092040;28;20215;-60
2021/07/29 00:47:53;;;;;;;6.97;4.97;;;14.90;99.90;;;;;;5091642;28;20204;-61
2021/07/29 00:50:20;;;;;;;10.20;5.60;;;14.80;1.00;;;;;;5092029;28;20227;-62
2021/07/29 00:52:48;;;;;;;9.53;5.83;;;14.80;1.00;;;;;;5092353;28;20623;-61
2021/07/29 00:55:15;;;;;;;9.70;5.80;;;14.80;1.00;;;;;;5091603;28;20208;-61
2021/07/29 00:57:44;;;;;;;7.80;5.37;;;14.80;1.00;;;;;;5092422;28;20253;-62
2021/07/29 01:00:12;;;;;;;8.03;5.87;;;14.80;1.00;;;;;;5092249;28;20223;-62
2021/07/29 01:02:39;;;;;;;8.03;6.27;;;14.80;1.00;;;;;;5092000;28;20211;-61
2021/07/29 01:05:07;;;;;;;7.80;5.97;;;14.90;1.00;;;;;;5091990;28;20203;-62
2021/07/29 01:07:34;;;;;;;9.53;6.27;;;14.80;1.00;;;;;;5092333;28;20204;-59
2021/07/29 01:10:01;;;;;;;9.90;6.27;;;14.80;1.00;;;;;;5092264;28;20228;-63
2021/07/29 01:12:27;;;;;;;7.10;5.73;;;14.80;1.00;;;;;;5092077;28;20200;-61
2021/07/29 01:14:55;;;;;;;8.27;5.17;;;14.80;1.00;;;;;;5091911;28;20211;-61
2021/07/29 01:17:22;;;;;;;7.23;5.10;;;14.90;1.00;;;;;;5091950;28;20204;-62
2021/07/29 01:19:49;;;;;;;7.00;4.80;;;14.90;1.00;;;;;;5092053;28;20254;-60
2021/07/29 01:22:16;;;;;;;6.50;4.70;;;14.90;99.90;;;;;;5093876;28;20585;-62
2021/07/29 01:24:43;;;;;;;6.33;4.90;;;14.90;99.90;;;;;;5096010;28;20233;-62
2021/07/29 01:27:10;;;;;;;7.07;4.63;;;14.80;53.00;;;;;;5095960;28;20253;-60
2021/07/29 01:29:36;;;;;;;6.73;4.20;;;14.80;41.40;;;;;;5095585;28;20684;-62
2021/07/29 01:32:03;;;;;;;6.27;4.60;;;14.70;1.00;;;;;;5095706;28;20212;-61
2021/07/29 01:34:30;;;;;;;7.87;4.20;;;14.60;99.90;;;;;;5095553;28;20664;-62
2021/07/29 01:36:57;;;;;;;7.77;4.47;;;14.60;99.90;;;;;;5095744;28;20212;-62
2021/07/29 01:39:25;;;;;;;4.33;3.93;;;14.60;99.90;;;;;;5095741;28;20236;-61
2021/07/29 01:41:51;;;;;;;7.57;4.03;;;14.50;99.90;;;;;;5095699;28;20208;-60
2021/07/29 01:44:18;;;;;;;7.53;4.03;;;14.50;99.90;;;;;;5095321;28;20208;-62
2021/07/29 01:46:45;;;;;;;8.00;4.23;;;14.40;99.90;;;;;;5095469;28;20208;-60
2021/07/29 01:49:11;;;;;;;8.40;4.07;;;14.40;99.90;;;;;;5095427;28;20228;-61
2021/07/29 01:51:38;;;;;;;6.47;4.00;;;14.40;99.90;;;;;;5095377;28;20272;-62
2021/07/29 01:54:05;;;;;;;5.10;4.57;;;14.30;1.00;;;;;;5095199;28;20740;-62
2021/07/29 01:56:33;;;;;;;7.03;4.40;;;14.30;27.30;;;;;;5095337;28;20204;-62
2021/07/29 01:59:05;;;;;;;8.43;4.97;;;14.30;99.90;;;;;;5095395;28;20227;-61
2021/07/29 02:01:32;;;;;;;8.20;5.00;;;14.40;99.90;;;;;;5095280;28;20257;-62
2021/07/29 02:03:59;;;;;;;7.23;5.30;;;14.40;99.90;;;;;;5095080;28;20656;-60
2021/07/29 02:06:25;;;;;;;6.43;4.70;;;14.40;99.90;;;;;;5095294;28;20287;-61
2021/07/29 02:08:52;;;;;;;7.83;4.93;;;14.40;99.90;;;;;;5095166;28;20227;-61
2021/07/29 02:11:19;;;;;;;7.63;4.97;;;14.30;99.90;;;;;;5094940;28;20228;-61
2021/07/29 02:13:47;;;;;;;8.57;4.33;;;14.30;99.90;;;;;;5094922;28;20260;-61
2021/07/29 02:16:14;;;;;;;6.93;4.90;;;14.30;99.90;;;;;;5095264;28;20749;-60
2021/07/29 02:18:41;;;;;;;7.57;4.83;;;14.30;99.90;;;;;;5094587;28;20228;-61
2021/07/29 02:21:09;;;;;;;9.77;5.10;;;14.30;99.90;;;;;;5095158;28;20204;-62
2021/07/29 02:23:36;;;;;;;9.30;4.40;;;14.20;99.90;;;;;;5094842;28;20203;-61
2021/07/29 02:26:02;;;;;;;10.20;4.77;;;14.20;99.90;;;;;;5094940;28;20264;-60
2021/07/29 02:28:29;;;;;;;6.40;4.63;;;14.20;99.90;;;;;;5094670;28;20276;-62
2021/07/29 02:30:57;;;;;;;7.20;4.47;;;14.10;99.90;;;;;;5094423;28;20235;-62
2021/07/29 02:33:24;;;;;;;7.83;4.30;;;14.10;99.90;;;;;;5093385;28;20207;-62
2021/07/29 02:35:51;;;;;;;7.37;4.47;;;14.10;99.90;;;;;;5094777;28;20593;-62
2021/07/29 02:38:18;;;;;;;11.20;4.47;;;14.10;99.90;;;;;;5094473;28;20498;-62
2021/07/29 02:40:45;;;;;;;8.70;4.57;;;14.10;15.90;;;;;;5094497;28;20206;-61
2021/07/29 02:43:12;;;;;;;7.83;3.80;;;14.10;1.00;;;;;;5094563;28;20236;-62
2021/07/29 02:45:38;;;;;;;5.30;3.70;;;14.10;1.00;;;;;;5094078;28;20203;-62
2021/07/29 02:48:06;;;;;;;7.17;4.40;;;14.10;1.00;;;;;;5094520;28;20206;-61
2021/07/29 02:50:33;;;;;;;8.97;4.33;;;14.10;1.00;;;;;;5094289;28;20336;-62
2021/07/29 02:53:00;;;;;;;8.77;4.20;;;14.00;1.00;;;;;;5094261;28;20208;-61
2021/07/29 02:55:26;;;;;;;8.30;4.73;;;14.00;1.00;;;;;;5094046;28;20207;-62
2021/07/29 02:57:53;;;;;;;8.63;4.67;;;14.00;1.00;;;;;;5094269;28;20207;-62
2021/07/29 03:00:20;;;;;;;6.43;4.97;;;13.90;44.70;;;;;;5093851;28;20222;-61
2021/07/29 03:02:46;;;;;;;8.33;4.80;;;13.90;99.90;;;;;;5094366;28;20597;-62
2021/07/29 03:05:14;;;;;;;6.73;4.70;;;13.90;99.90;;;;;;5093847;28;20265;-58
2021/07/29 03:07:41;;;;;;;6.07;4.23;;;13.90;99.90;;;;;;5094140;28;20259;-60
2021/07/29 03:10:08;;;;;;;7.43;4.40;;;13.80;99.90;;;;;;5093875;28;20925;-62
2021/07/29 03:12:35;;;;;;;6.53;4.77;;;13.80;99.90;;;;;;5093661;28;20211;-62
2021/07/29 03:15:01;;;;;;;10.30;4.90;;;13.90;99.90;;;;;;5093460;28;20221;-63
2021/07/29 03:17:28;;;;;;;5.43;4.60;;;13.80;99.90;;;;;;5093891;28;20675;-62
2021/07/29 03:19:55;;;;;;;6.50;4.93;;;13.80;99.90;;;;;;5093748;28;20220;-62
2021/07/29 03:22:23;;;;;;;10.53;5.47;;;13.80;99.90;;;;;;5093793;28;20214;-62
2021/07/29 03:24:49;;;;;;;8.77;4.60;;;13.80;99.90;;;;;;5093425;28;20210;-61
2021/07/29 03:27:16;;;;;;;9.43;4.97;;;13.80;99.90;;;;;;5093378;28;20261;-60
2021/07/29 03:29:42;;;;;;;9.03;5.17;;;13.70;99.90;;;;;;5093668;28;20227;-63
2021/07/29 03:32:09;;;;;;;7.57;4.80;;;13.80;99.90;;;;;;5093416;28;20573;-60
2021/07/29 03:34:36;;;;;;;9.00;5.70;;;13.80;99.90;;;;;;5093509;28;20261;-62
2021/07/29 03:37:02;;;;;;;8.37;4.93;;;13.80;99.90;;;;;;5093310;28;20850;-61
2021/07/29 03:39:30;;;;;;;11.00;5.00;;;13.80;99.90;;;;;;5093144;28;20227;-62
2021/07/29 03:41:57;;;;;;;7.50;4.87;;;13.80;99.90;;;;;;5093175;28;20216;-62
2021/07/29 03:44:23;;;;;;;10.33;4.90;;;13.80;92.40;;;;;;5093018;28;20226;-62
2021/07/29 03:46:50;;;;;;;8.40;4.90;;;13.90;15.80;;;;;;5093358;28;20264;-61
2021/07/29 03:49:17;;;;;;;9.67;5.23;;;13.80;4.40;;;;;;5093086;28;20227;-63
2021/07/29 03:51:43;;;;;;;7.97;5.00;;;13.90;1.00;;;;;;5092958;28;20223;-61
2021/07/29 03:54:10;;;;;;;10.20;4.83;;;13.90;1.00;;;;;;5092775;28;20207;-62
2021/07/29 03:56:38;;;;;;;8.20;5.30;;;13.90;1.00;;;;;;5092904;28;20207;-62
2021/07/29 03:59:04;;;;;;;10.17;5.43;;;13.80;1.00;;;;;;5093155;28;20291;-60
2021/07/29 04:01:31;;;;;;;10.17;5.27;;;13.80;1.00;;;;;;5093122;28;20199;-61
2021/07/29 04:03:57;;;;;;;8.43;4.93;;;13.80;1.00;;;;;;5092832;28;20212;-62
2021/07/29 04:06:24;;;;;;;8.53;4.50;;;13.90;1.00;;;;;;5092795;28;20200;-61
2021/07/29 04:08:51;;;;;;;8.13;4.57;;;13.90;1.00;;;;;;5092658;28;20269;-61
2021/07/29 04:11:17;;;;;;;10.70;5.37;;;13.90;80.60;;;;;;5092857;28;20265;-62
2021/07/29 04:13:45;;;;;;;10.03;5.40;;;13.90;99.90;;;;;;5092790;28;20823;-62
2021/07/29 04:16:12;;;;;;;8.10;5.20;;;13.90;99.90;;;;;;5092731;28;20211;-62
2021/07/29 04:18:39;;;;;;;8.80;5.37;;;13.90;99.90;;;;;;5090611;28;20235;-61
2021/07/29 04:21:05;;;;;;;7.40;4.80;;;13.90;99.90;;;;;;5092680;28;20256;-62
2021/07/29 04:23:32;;;;;;;11.93;5.53;;;13.90;99.90;;;;;;5092307;28;20217;-63
2021/07/29 04:25:58;;;;;;;9.50;5.63;;;13.90;99.90;;;;;;5092546;28;20233;-62
2021/07/29 04:28:25;;;;;;;9.10;5.63;;;13.90;99.90;;;;;;5091569;28;20703;-62
2021/07/29 04:30:53;;;;;;;7.23;5.57;;;13.90;99.90;;;;;;5092060;28;20283;-62
2021/07/29 04:33:20;;;;;;;8.20;5.40;;;13.90;99.90;;;;;;5089439;28;20785;-63
2021/07/29 04:35:46;;;;;;;11.43;6.10;;;13.90;99.90;;;;;;5092194;28;20620;-63
2021/07/29 04:38:13;;;;;;;10.57;5.53;;;14.00;99.90;;;;;;5091992;28;20257;-63
2021/07/29 04:40:39;;;;;;;10.67;5.97;;;14.00;99.90;;;;;;5092504;28;20298;-63
2021/07/29 04:43:06;;;;;;;12.70;5.77;;;14.10;99.90;;;;;;5089421;28;20210;-63
2021/07/29 04:45:33;;;;;;;8.77;5.63;;;14.10;99.90;;;;;;5088057;28;20204;-63
2021/07/29 04:48:01;;;;;;;11.20;5.47;;;14.20;99.90;;;;;;5092226;28;20257;-63
2021/07/29 04:50:27;;;;;;;9.10;5.43;;;14.20;99.90;;;;;;5092187;28;20241;-63
2021/07/29 04:52:54;;;;;;;8.37;5.00;;;14.20;99.90;;;;;;5092274;28;20241;-62
2021/07/29 04:55:21;;;;;;;10.97;5.50;;;14.20;22.70;;;;;;5092088;28;20261;-63
2021/07/29 04:57:47;;;;;;;11.83;5.97;;;14.20;1.00;;;;;;5092827;28;20207;-62
2021/07/29 05:00:15;;;;;;;13.57;5.77;;;14.10;1.00;;;;;;5093153;28;20232;-63
2021/07/29 05:02:41;;;;;;;11.10;5.27;;;14.10;1.00;;;;;;5092605;28;20245;-63
2021/07/29 05:05:11;;;;;;;8.53;5.10;;;14.20;36.70;;;;;;5092124;28;20245;-63
2021/07/29 05:07:37;;;;;;;9.77;5.10;;;14.20;1.00;;;;;;5092168;28;20208;-62
2021/07/29 05:10:06;;;;;;;12.47;5.27;;;14.30;1.00;;;;;;5092097;28;20723;-63
2021/07/29 05:12:32;;;;;;;9.37;4.07;;;14.30;88.40;;;;;;5092320;28;20227;-63
2021/07/29 05:14:59;;;;;;;6.93;4.37;;;14.40;1.00;;;;;;5092327;28;20208;-63
2021/07/29 05:17:26;;;;;;;6.93;3.53;;;14.40;1.00;;;;;;5091852;28;20212;-63
2021/07/29 05:19:52;;;;;;;12.20;4.33;;;14.50;99.90;;;;;;5091433;28;20238;-63
2021/07/29 05:22:20;;;;;;;6.33;4.03;;;14.50;57.10;;;;;;5089409;28;20212;-65
2021/07/29 05:24:47;;;;;;;9.27;3.90;;;14.60;99.90;;;;;;5083666;28;20231;-62
2021/07/29 05:27:14;;;;;;;6.87;3.70;;;14.60;99.90;;;;;;5091288;28;20300;-62
2021/07/29 05:29:40;;;;;;;5.33;3.10;;;14.70;99.90;;;;;;5091453;28;20231;-63
2021/07/29 05:32:08;;;;;;;8.20;3.67;;;14.70;1.00;;;;;;5091250;28;20231;-63
2021/07/29 05:34:35;;;;;;;9.93;3.73;;;14.70;1.00;;;;;;5090847;28;20253;-63
2021/07/29 05:37:03;;;;;;;8.37;3.33;;;14.70;1.00;;;;;;5091353;28;20204;-64
2021/07/29 05:39:33;;;;;;;7.90;3.30;;;14.80;99.90;;;;;;5091160;28;20315;-62
2021/07/29 05:42:01;;;;;;;5.73;3.37;;;14.90;99.90;;;;;;5091373;28;20241;-64
2021/07/29 05:44:28;;;;;;;8.93;3.20;;;14.90;99.90;;;;;;5090588;28;20816;-63
2021/07/29 05:46:54;;;;;;;8.63;2.97;;;14.90;99.90;;;;;;5090341;28;20215;-62
2021/07/29 05:49:21;;;;;;;6.00;3.03;;;15.00;99.90;;;;;;5091255;28;20228;-64
2021/07/29 05:51:47;;;;;;;7.03;2.63;;;15.00;99.90;;;;;;5091157;28;20235;-63
2021/07/29 05:54:14;;;;;;;5.63;2.70;;;15.10;99.90;;;;;;5090647;28;20665;-63
2021/07/29 05:56:42;;;;;;;9.70;3.37;;;15.10;99.90;;;;;;5090892;28;20261;-64
2021/07/29 05:59:09;;;;;;;6.77;2.67;;;15.10;99.90;;;;;;5091045;28;20232;-63
2021/07/29 06:01:35;;;;;;;10.23;3.00;;;15.20;99.90;;;;;;5090645;28;20200;-63
2021/07/29 06:04:02;;;;;;;5.20;2.30;;;15.20;1.00;;;;;;5090935;28;20253;-62
2021/07/29 06:06:28;;;;;;;7.73;2.50;;;15.30;99.90;;;;;;5090850;28;20279;-64
2021/07/29 06:08:57;;;;;;;6.70;2.50;;;15.30;99.90;;;;;;5092765;28;20224;-63
2021/07/29 06:11:24;;;;;;;9.53;2.87;;;15.30;1.00;;;;;;5094777;28;20223;-63
2021/07/29 06:13:52;;;;;;;8.83;3.17;;;15.40;99.90;;;;;;5094146;28;20208;-64
2021/07/29 06:16:19;;;;;;;13.60;3.00;;;15.40;1.00;;;;;;5094862;28;20220;-62
2021/07/29 06:18:53;;;;;;;6.53;2.70;;;15.40;99.90;;;;;;5094405;28;20259;-65
2021/07/29 06:21:19;;;;;;;7.53;2.97;;;15.50;99.90;;;;;;5094351;28;20672;-63
2021/07/29 06:23:46;;;;;;;8.43;2.67;;;15.60;99.90;;;;;;5093847;28;20700;-64
2021/07/29 06:26:13;;;;;;;11.73;2.90;;;15.60;1.00;;;;;;5094252;28;20208;-64
2021/07/29 06:28:39;;;;;;;9.50;2.90;;;15.70;1.00;;;;;;5093920;28;20285;-64
2021/07/29 06:31:08;;;;;;;5.23;2.37;;;15.70;1.00;;;;;;5094132;28;20628;-64
2021/07/29 06:33:35;;;;;;;4.80;1.80;;;15.70;99.90;;;;;;5094036;28;20208;-64
2021/07/29 06:36:02;;;;;;;9.03;2.10;;;15.80;99.90;;;;;;5094265;28;20621;-65
2021/07/29 06:38:29;;;;;;;8.53;2.17;;;15.90;99.90;;;;;;5094049;28;21476;-64
2021/07/29 06:40:55;;;;;;;6.20;2.60;;;15.90;99.90;;;;;;5093917;28;20215;-64
2021/07/29 06:43:22;;;;;;;4.50;2.13;;;16.00;99.90;;;;;;5094124;28;20204;-64
2021/07/29 06:45:49;;;;;;;5.90;2.57;;;16.00;99.90;;;;;;5094181;28;20200;-65
2021/07/29 06:48:17;;;;;;;6.33;2.60;;;16.00;99.90;;;;;;5093944;28;20685;-64
2021/07/29 06:50:44;;;;;;;6.90;2.10;;;16.10;99.90;;;;;;5093879;28;20291;-65
2021/07/29 06:53:11;;;;;;;8.37;2.33;;;16.10;99.90;;;;;;5093637;28;20235;-64
2021/07/29 06:55:38;;;;;;;6.93;2.90;;;16.20;52.50;;;;;;5093732;28;20211;-63
2021/07/29 06:58:05;;;;;;;7.87;2.27;;;16.30;10.90;;;;;;5094043;28;20208;-64
2021/07/29 07:00:32;;;;;;;4.73;1.53;;;16.40;8.00;;;;;;5093739;28;20675;-63
2021/07/29 07:03:00;;;;;;;6.53;2.20;;;16.40;1.00;;;;;;5093793;28;20555;-64
2021/07/29 07:05:28;;;;;;;5.30;2.00;;;16.50;1.00;;;;;;5093486;28;20208;-63
2021/07/29 07:07:54;;;;;;;5.33;1.70;;;16.40;8.40;;;;;;5093577;28;20207;-64
2021/07/29 07:10:21;;;;;;;5.57;2.40;;;16.60;15.30;;;;;;5093637;28;20277;-64
2021/07/29 07:12:48;;;;;;;10.77;3.73;;;16.60;1.00;;;;;;5093354;28;20692;-64
2021/07/29 07:15:15;;;;;;;11.23;2.40;;;16.70;1.00;;;;;;5093245;28;20210;-64
2021/07/29 07:17:41;;;;;;;7.87;2.97;;;16.70;1.00;;;;;;5093612;28;20204;-64
2021/07/29 07:20:09;;;;;;;7.67;2.10;;;16.70;1.00;;;;;;5092883;28;20235;-65
2021/07/29 07:22:38;;;;;;;4.53;2.30;;;16.70;1.00;;;;;;5093249;28;20192;-65
2021/07/29 07:25:05;;;;;;;10.00;2.50;;;16.60;1.00;;;;;;5092906;28;20696;-62
2021/07/29 07:27:32;;;;;;;6.47;2.10;;;16.60;1.00;;;;;;5093409;28;20215;-64
2021/07/29 07:29:58;;;;;;;4.73;1.60;;;16.70;1.00;;;;;;5093399;28;20232;-65
2021/07/29 07:32:25;;;;;;;4.87;2.03;;;16.70;1.00;;;;;;5092906;28;20593;-64
2021/07/29 07:34:51;;;;;;;7.70;2.17;;;16.80;1.00;;;;;;5092797;28;20211;-64
2021/07/29 07:37:20;;;;;;;5.90;2.13;;;17.00;1.00;;;;;;5092799;28;20204;-65
2021/07/29 07:39:48;;;;;;;6.57;2.40;;;17.10;1.00;;;;;;5093243;28;20319;-62
2021/07/29 07:42:15;;;;;;;6.07;1.80;;;17.30;1.00;;;;;;5092973;28;20204;-62
2021/07/29 07:44:41;;;;;;;7.83;2.00;;;17.40;1.00;;;;;;5093115;28;20199;-62
2021/07/29 07:47:08;;;;;;;5.83;2.53;;;17.40;1.00;;;;;;5092790;28;20261;-61
2021/07/29 07:49:35;;;;;;;8.40;1.97;;;17.50;1.00;;;;;;5092837;28;20274;-61
2021/07/29 07:52:02;;;;;;;7.17;2.10;;;17.60;1.00;;;;;;5092446;28;20224;-61
2021/07/29 07:54:28;;;;;;;6.00;2.07;;;17.40;1.00;;;;;;5092490;28;20204;-61
2021/07/29 07:56:56;;;;;;;5.60;1.80;;;17.30;1.00;;;;;;5092496;28;20908;-61
2021/07/29 07:59:23;;;;;;;7.60;1.87;;;17.50;1.00;;;;;;5092614;28;20299;-62
2021/07/29 08:01:49;;;;;;;5.33;1.67;;;17.70;1.00;;;;;;5092496;28;20196;-61
2021/07/29 08:04:16;;;;;;;7.20;1.90;;;17.80;1.00;;;;;;5091924;28;20258;-61
2021/07/29 08:06:43;;;;;;;7.23;1.70;;;17.80;99.90;;;;;;5093004;28;20216;-63
2021/07/29 08:09:09;;;;;;;7.40;1.90;;;17.80;99.90;;;;;;5092419;28;20231;-64
2021/07/29 08:11:36;;;;;;;6.50;2.10;;;17.80;99.90;;;;;;5092248;28;20204;-64
2021/07/29 08:14:04;;;;;;;8.10;2.17;;;17.70;99.90;;;;;;5092215;28;20604;-63
2021/07/29 08:16:30;;;;;;;5.43;1.63;;;17.70;99.90;;;;;;5092211;28;20209;-63
2021/07/29 08:18:57;;;;;;;3.97;1.83;;;17.80;99.90;;;;;;5092100;28;20227;-63
2021/07/29 08:21:24;;;;;;;8.07;2.10;;;17.90;99.90;;;;;;5092288;28;20238;-63
2021/07/29 08:23:50;;;;;;;10.87;2.33;;;17.80;99.90;;;;;;5092067;28;20215;-63
2021/07/29 08:26:17;;;;;;;6.17;1.60;;;17.70;99.90;;;;;;5092379;28;20211;-63
2021/07/29 08:28:44;;;;;;;7.67;2.00;;;17.70;99.90;;;;;;5091973;28;20665;-64
2021/07/29 08:31:13;;;;;;;6.20;2.17;;;17.80;99.90;;;;;;5091448;28;20568;-62
2021/07/29 08:33:42;;;;;;;6.57;1.60;;;17.80;99.90;;;;;;5090921;28;20323;-64
2021/07/29 08:36:13;;;;;;;5.90;2.10;;;17.90;99.90;;;;;;5092162;28;20272;-62
2021/07/29 08:38:39;;;;;;;7.37;2.10;;;18.10;99.90;;;;;;5091941;28;20224;-62
2021/07/29 08:41:06;;;;;;;5.33;1.67;;;18.30;99.90;;;;;;5092066;28;20204;-62
2021/07/29 08:43:35;;;;;;;6.10;2.17;;;18.40;99.90;;;;;;5091599;28;20684;-62
2021/07/29 08:46:04;;;;;;;4.07;1.73;;;18.40;99.90;;;;;;5091703;28;20580;-64
2021/07/29 08:48:33;;;;;;;6.50;2.20;;;18.40;99.90;;;;;;5091793;28;20262;-64
2021/07/29 08:51:00;;;;;;;6.47;2.00;;;18.50;99.90;;;;;;5091845;28;20216;-63
2021/07/29 08:53:27;;;;;;;10.43;1.83;;;18.60;99.90;;;;;;5091359;28;20223;-63
2021/07/29 08:55:55;;;;;;;7.53;2.13;;;18.80;99.90;;;;;;5091491;28;20208;-63
2021/07/29 08:58:22;;;;;;;5.60;1.80;;;18.80;99.90;;;;;;5091473;28;20919;-63
2021/07/29 09:01:06;;;;;;;5.03;1.60;;;18.70;99.90;;;;;;5091273;28;20200;-63
2021/07/29 09:03:34;;;;;;;8.37;2.13;;;18.60;99.90;;;;;;5091956;28;20196;-63
2021/07/29 09:06:05;;;;;;;3.87;1.50;;;18.50;99.90;;;;;;5093945;28;20208;-63
2021/07/29 09:08:43;;;;;;;4.27;1.83;;;18.30;99.90;;;;;;5094559;28;20224;-64
2021/07/29 09:11:26;;;;;;;9.90;2.07;;;18.40;99.90;;;;;;5091719;28;20227;-64
2021/07/29 09:14:06;;;;;;;5.37;1.53;;;18.50;99.90;;;;;;5099896;28;20219;-65
2021/07/29 09:16:37;;;;;;;17.77;2.43;;;18.50;99.90;;;;;;5096729;28;20247;-65
2021/07/29 09:19:06;;;;;;;7.57;1.83;;;18.60;99.90;;;;;;5092767;28;20220;-63
2021/07/29 09:21:33;;;;;;;4.67;1.50;;;18.50;99.90;;;;;;5091428;28;20253;-64
2021/07/29 09:24:07;;;;;;;6.67;2.03;;;18.50;99.90;;;;;;5090886;28;20668;-64
2021/07/29 09:26:57;;;;;;;6.23;1.97;;;18.70;99.90;;;;;;5091520;28;20204;-64
2021/07/29 09:29:25;;;;;;;2.40;1.90;;;18.80;99.90;;;;;;5091567;28;20239;-63
2021/07/29 09:32:03;;;;;;;7.20;1.90;;;18.70;99.90;;;;;;5091275;28;20253;-63
2021/07/29 09:34:42;;;;;;;5.77;1.73;;;18.80;99.90;;;;;;5091042;28;20257;-62
2021/07/29 09:37:08;;;;;;;8.03;1.73;;;18.70;99.90;;;;;;5091498;28;20204;-64
2021/07/29 09:39:37;;;;;;;5.27;1.80;;;18.80;99.90;;;;;;5091324;28;20277;-64
2021/07/29 09:42:21;;;;;;;6.53;1.83;;;18.90;99.90;;;;;;5071507;28;20564;-64
2021/07/29 09:44:50;;;;;;;4.93;1.80;;;18.80;99.90;;;;;;5074784;28;20210;-63
2021/07/29 09:47:18;;;;;;;4.47;1.60;;;18.70;99.90;;;;;;5075038;28;20208;-64
2021/07/29 09:49:47;;;;;;;6.73;1.60;;;18.70;99.90;;;;;;5074765;28;20665;-65
2021/07/29 09:52:14;;;;;;;5.60;1.60;;;18.80;99.90;;;;;;5074718;28;20259;-65
2021/07/29 09:54:42;;;;;;;6.97;1.67;;;19.20;99.90;;;;;;5074250;28;20822;-63
2021/07/29 09:57:10;;;;;;;5.47;1.60;;;19.40;99.90;;;;;;5074862;28;20670;-64
2021/07/29 09:59:37;;;;;;;4.97;1.77;;;19.70;99.90;;;;;;5074766;28;20229;-64
2021/07/29 10:02:05;;;;;;;6.50;1.53;;;19.80;99.90;;;;;;5075375;28;20580;-64
2021/07/29 10:04:38;;;;;;;6.73;2.03;;;19.90;99.90;;;;;;5074101;28;20647;-64
2021/07/29 10:07:10;;;;;;;7.57;2.13;;;19.90;99.90;;;;;;5074784;28;20263;-66
2021/07/29 10:09:45;;;;;;;8.23;2.70;;;19.90;99.90;;;;;;5074399;28;21026;-66
2021/07/29 10:12:19;;;;;;;6.20;2.00;;;20.00;99.90;;;;;;5074695;28;20205;-63
2021/07/29 10:14:46;;;;;;;8.10;2.00;;;20.00;99.90;;;;;;5074017;28;20258;-64
2021/07/29 10:17:13;;;;;;;4.10;1.73;;;19.80;99.90;;;;;;5074497;28;20209;-65
2021/07/29 10:20:14;;;;;;;5.80;1.60;;;19.40;99.90;;;;;;5074104;28;20232;-63
2021/07/29 10:22:42;;;;;;;8.40;1.53;;;19.00;99.90;;;;;;5074316;28;20216;-62
2021/07/29 10:25:09;;;;;;;5.63;1.70;;;18.80;99.90;;;;;;5073936;28;20255;-64
2021/07/29 10:27:36;;;;;;;9.63;1.80;;;18.50;99.90;;;;;;5074368;28;20201;-62
2021/07/29 10:30:30;;;;;;;3.83;1.60;;;18.30;99.90;;;;;;5074191;28;20224;-63
2021/07/29 10:32:57;;;;;;;6.83;2.00;;;18.20;99.90;;;;;;5074241;28;20261;-64
2021/07/29 10:35:45;;;;;;;8.70;2.23;;;18.40;99.90;;;;;;5073820;28;20204;-64
2021/07/29 10:38:14;;;;;;;4.93;1.50;;;18.90;99.90;;;;;;5067240;28;20605;-64
2021/07/29 10:40:43;;;;;;;5.53;1.80;;;19.00;99.90;;;;;;5073574;28;20215;-63
2021/07/29 10:43:39;;;;;;;3.03;1.63;;;18.90;99.90;;;;;;5073744;28;20208;-64
2021/07/29 10:46:06;;;;;;;7.60;1.57;;;19.20;99.90;;;;;;5073980;28;20259;-65
2021/07/29 10:49:12;;;;;;;7.33;2.17;;;19.40;99.90;;;;;;5073451;28;20225;-65
2021/07/29 10:51:59;;;;;;;6.07;1.73;;;19.70;99.90;;;;;;5073700;28;20278;-65
2021/07/29 10:54:28;;;;;;;3.53;1.40;;;19.90;99.90;;;;;;5072452;28;20228;-65
2021/07/29 10:56:55;;;;;;;7.90;1.93;;;20.10;99.90;;;;;;5073634;28;20212;-64
2021/07/29 10:59:22;;;;;;;6.03;2.03;;;20.30;99.90;;;;;;5072805;28;20294;-64
2021/07/29 11:01:50;;;;;;;3.73;1.17;;;20.70;99.90;;;;;;5072969;28;20212;-65
2021/07/29 11:04:17;;;;;;;4.83;1.50;;;20.80;99.90;;;;;;5073062;28;20717;-65
2021/07/29 11:06:43;;;;;;;7.00;1.70;;;20.50;99.90;;;;;;5073841;28;20251;-64
2021/07/29 11:09:11;;;;;;;7.93;2.07;;;20.10;99.90;;;;;;5073390;28;20229;-65
2021/07/29 11:11:40;;;;;;;4.87;1.70;;;20.20;99.90;;;;;;5073026;28;20624;-64
2021/07/29 11:14:08;;;;;;;5.03;1.60;;;20.30;99.90;;;;;;5072898;28;20273;-65
2021/07/29 11:16:35;;;;;;;4.63;1.80;;;20.10;99.90;;;;;;5073473;28;20205;-65
2021/07/29 11:19:03;;;;;;;5.00;1.87;;;19.90;99.90;;;;;;5073297;28;20374;-64
2021/07/29 11:21:30;;;;;;;6.23;1.60;;;19.70;99.90;;;;;;5073279;28;20204;-65
2021/07/29 11:23:58;;;;;;;7.50;1.70;;;19.60;99.90;;;;;;5073365;28;20205;-72
2021/07/29 11:26:26;;;;;;;5.80;1.70;;;19.70;99.90;;;;;;5072735;28;20583;-65
2021/07/29 11:29:10;;;;;;;4.50;1.57;;;19.80;99.90;;;;;;5073319;28;20229;-63
2021/07/29 11:31:37;;;;;;;5.63;1.83;;;19.90;99.90;;;;;;5072950;28;20216;-65
2021/07/29 11:34:04;;;;;;;3.70;1.50;;;20.00;99.90;;;;;;5072348;28;20228;-67
2021/07/29 11:36:31;;;;;;;7.07;1.67;;;20.20;99.90;;;;;;5072819;28;20922;-67
2021/07/29 11:39:00;;;;;;;5.67;1.87;;;20.40;99.90;;;;;;5072635;28;20225;-68
2021/07/29 11:41:27;;;;;;;4.73;1.63;;;20.60;99.90;;;;;;5072929;28;20247;-66
2021/07/29 11:43:55;;;;;;;5.60;2.00;;;20.70;99.90;;;;;;5072344;28;20273;-65
2021/07/29 11:46:23;;;;;;;7.40;2.00;;;20.70;99.90;;;;;;5072733;28;20205;-68
2021/07/29 11:49:01;;;;;;;5.23;2.43;;;20.50;99.90;;;;;;5072313;28;20228;-66
2021/07/29 11:51:28;;;;;;;6.30;2.17;;;20.20;99.90;;;;;;5072266;28;20226;-66
2021/07/29 11:53:55;;;;;;;6.77;1.70;;;19.90;99.90;;;;;;5072345;28;20282;-66
2021/07/29 11:56:22;;;;;;;10.53;1.97;;;19.80;99.90;;;;;;5072197;28;20733;-65
2021/07/29 11:58:57;;;;;;;7.27;2.23;;;19.70;99.90;;;;;;5072463;28;20256;-65
2021/07/29 12:01:25;;;;;;;4.17;1.70;;;19.90;99.90;;;;;;5072268;28;20259;-65
2021/07/29 12:03:54;;;;;;;4.53;1.70;;;20.00;99.90;;;;;;5071824;28;20259;-66
2021/07/29 12:06:23;;;;;;;7.17;1.93;;;20.00;99.90;;;;;;5071561;28;20266;-65
2021/07/29 12:08:51;;;;;;;4.83;2.23;;;19.90;99.90;;;;;;5071388;28;20228;-63
2021/07/29 12:11:20;;;;;;;9.33;2.10;;;20.00;99.90;;;;;;5071974;28;20209;-64
2021/07/29 12:13:48;;;;;;;5.90;2.10;;;20.30;99.90;;;;;;5071672;28;20725;-63
2021/07/29 12:16:15;;;;;;;5.63;1.60;;;20.50;99.90;;;;;;5071980;28;20254;-62
2021/07/29 12:18:43;;;;;;;6.23;1.90;;;20.50;99.90;;;;;;5071772;28;20596;-62
2021/07/29 12:21:10;;;;;;;5.10;1.80;;;20.50;99.90;;;;;;5072362;28;20673;-62
2021/07/29 12:23:37;;;;;;;5.27;1.70;;;20.50;99.90;;;;;;5071689;28;20749;-66
2021/07/29 12:26:14;;;;;;;5.67;1.80;;;20.70;99.90;;;;;;5072004;28;20212;-64
2021/07/29 12:28:43;;;;;;;5.67;1.60;;;20.60;99.90;;;;;;5071925;28;20287;-64
2021/07/29 12:31:20;;;;;;;5.60;2.10;;;20.50;99.90;;;;;;5071613;28;20224;-65
2021/07/29 12:33:53;;;;;;;4.27;1.90;;;20.60;99.90;;;;;;5071020;28;20282;-67
2021/07/29 12:36:22;;;;;;;9.60;2.00;;;20.70;99.90;;;;;;5071959;28;20211;-67
2021/07/29 12:39:00;;;;;;;3.43;1.63;;;20.90;99.90;;;;;;5071724;28;20225;-66
2021/07/29 12:41:33;;;;;;;3.17;1.60;;;21.00;99.90;;;;;;5071649;28;20208;-65
2021/07/29 12:44:11;;;;;;;6.40;1.50;;;21.10;99.90;;;;;;5071552;28;20209;-66
2021/07/29 12:46:38;;;;;;;4.43;1.60;;;21.20;99.90;;;;;;5072102;28;20205;-65
2021/07/29 12:49:07;;;;;;;6.87;2.27;;;21.10;99.90;;;;;;5071642;28;20221;-65
2021/07/29 12:51:37;;;;;;;9.63;2.37;;;21.20;99.90;;;;;;5072016;28;20331;-65
2021/07/29 12:54:05;;;;;;;3.87;1.43;;;21.30;99.90;;;;;;5070784;28;20574;-65
2021/07/29 12:56:31;;;;;;;3.30;1.40;;;21.30;99.90;;;;;;5071606;28;20624;-64